Time;durP1;ratioP1;P1;durP2;ratioP2;P2;SDS_P1;SDS_P2;PMS_P1;PMS_P2;Temp;Humidity;BMP_temperature;BMP_pressure;BME280_temperature;BME280_humidity;BME280_pressure;Samples;Min_cycle;Max_cycle;Signal;HPM_P1;HPM_P2
2023/08/22 00:01:17;;;;;;;7.05;6.40;;;;;;;;;;4950444;28;20218;-62
2023/08/22 00:03:44;;;;;;;7.03;6.38;;;;;;;;;;4950172;28;20227;-63
2023/08/22 00:06:11;;;;;;;7.88;6.70;;;;;;;;;;4950219;28;20207;-63
2023/08/22 00:08:38;;;;;;;9.57;6.50;;;;;;;;;;4950338;28;20207;-63
2023/08/22 00:11:05;;;;;;;8.10;6.18;;;;;;;;;;4949949;28;20250;-62
2023/08/22 00:13:32;;;;;;;7.25;6.45;;;;;;;;;;4950327;28;20207;-63
2023/08/22 00:16:01;;;;;;;7.03;6.43;;;;;;;;;;4949639;29;20207;-63
2023/08/22 00:18:28;;;;;;;7.70;7.00;;;;;;;;;;4949181;28;20380;-63
2023/08/22 00:20:55;;;;;;;9.57;6.47;;;;;;;;;;4950544;28;20270;-62
2023/08/22 00:23:22;;;;;;;9.05;6.88;;;;;;;;;;4945065;28;20728;-63
2023/08/22 00:25:50;;;;;;;7.43;6.53;;;;;;;;;;4949914;28;20211;-63
2023/08/22 00:28:17;;;;;;;10.63;6.68;;;;;;;;;;4948345;28;20315;-63
2023/08/22 00:30:44;;;;;;;7.25;6.65;;;;;;;;;;4949623;28;20222;-63
2023/08/22 00:33:12;;;;;;;6.68;6.03;;;;;;;;;;4944829;28;20215;-62
2023/08/22 00:35:39;;;;;;;6.88;6.28;;;;;;;;;;4950155;28;20207;-62
2023/08/22 00:38:06;;;;;;;9.60;7.22;;;;;;;;;;4947737;28;20238;-63
2023/08/22 00:40:33;;;;;;;6.88;6.28;;;;;;;;;;4946364;28;20868;-62
2023/08/22 00:43:00;;;;;;;7.47;6.80;;;;;;;;;;4949505;28;20215;-62
2023/08/22 00:45:27;;;;;;;7.57;6.60;;;;;;;;;;4949798;28;20203;-62
2023/08/22 00:47:54;;;;;;;7.10;6.13;;;;;;;;;;4947951;28;20211;-61
2023/08/22 00:50:23;;;;;;;8.63;6.57;;;;;;;;;;4949473;28;20237;-63
2023/08/22 00:52:50;;;;;;;7.70;7.03;;;;;;;;;;4943973;28;20219;-62
2023/08/22 00:55:17;;;;;;;7.95;6.80;;;;;;;;;;4947701;28;20215;-62
2023/08/22 00:57:44;;;;;;;6.97;6.47;;;;;;;;;;4948660;28;20232;-62
2023/08/22 01:00:11;;;;;;;7.35;6.75;;;;;;;;;;4947102;28;20456;-65
2023/08/22 01:02:39;;;;;;;7.07;6.40;;;;;;;;;;4946590;28;20215;-64
2023/08/22 01:05:07;;;;;;;7.25;6.60;;;;;;;;;;4948341;28;20298;-64
2023/08/22 01:07:37;;;;;;;8.38;6.63;;;;;;;;;;4945103;28;20215;-64
2023/08/22 01:10:07;;;;;;;6.80;6.20;;;;;;;;;;4947630;28;20230;-65
2023/08/22 01:12:37;;;;;;;7.47;6.65;;;;;;;;;;4949337;28;20214;-64
2023/08/22 01:15:06;;;;;;;7.00;6.32;;;;;;;;;;4949211;28;20199;-64
2023/08/22 01:17:34;;;;;;;6.97;6.35;;;;;;;;;;4949201;28;20733;-64
2023/08/22 01:20:02;;;;;;;7.05;6.43;;;;;;;;;;4948921;28;20243;-64
2023/08/22 01:22:31;;;;;;;8.55;6.35;;;;;;;;;;4948240;28;20207;-64
2023/08/22 01:24:58;;;;;;;7.25;6.55;;;;;;;;;;4948875;28;20571;-62
2023/08/22 01:27:28;;;;;;;7.45;6.80;;;;;;;;;;4949462;28;20403;-62
2023/08/22 01:29:59;;;;;;;8.60;6.63;;;;;;;;;;4949131;28;20506;-62
2023/08/22 01:32:29;;;;;;;8.48;7.25;;;;;;;;;;4949149;28;20202;-62
2023/08/22 01:34:58;;;;;;;6.97;6.22;;;;;;;;;;4949022;28;20207;-62
2023/08/22 01:37:25;;;;;;;10.10;6.20;;;;;;;;;;4948690;29;20214;-62
2023/08/22 01:39:55;;;;;;;7.45;6.75;;;;;;;;;;4949067;28;20222;-62
2023/08/22 01:42:22;;;;;;;7.05;6.45;;;;;;;;;;4948918;28;20298;-62
2023/08/22 01:44:49;;;;;;;7.03;6.38;;;;;;;;;;4948718;28;20227;-64
2023/08/22 01:47:16;;;;;;;7.88;7.20;;;;;;;;;;4949003;28;20211;-64
2023/08/22 01:49:43;;;;;;;6.95;6.45;;;;;;;;;;4948794;28;20238;-64
2023/08/22 01:52:10;;;;;;;7.53;6.93;;;;;;;;;;4949000;28;20211;-64
2023/08/22 01:54:38;;;;;;;12.20;7.25;;;;;;;;;;4948462;28;20207;-64
2023/08/22 01:57:06;;;;;;;8.48;6.32;;;;;;;;;;4948302;28;20300;-64
2023/08/22 01:59:34;;;;;;;6.95;6.35;;;;;;;;;;4948420;28;20218;-64
2023/08/22 02:02:01;;;;;;;8.07;6.75;;;;;;;;;;4948820;28;20211;-64
2023/08/22 02:04:28;;;;;;;7.97;7.18;;;;;;;;;;4948301;28;20234;-64
2023/08/22 02:06:55;;;;;;;9.63;6.95;;;;;;;;;;4948211;28;20207;-64
2023/08/22 02:09:22;;;;;;;8.48;6.82;;;;;;;;;;4948650;28;20294;-64
2023/08/22 02:11:49;;;;;;;7.30;6.60;;;;;;;;;;4948092;28;20207;-64
2023/08/22 02:14:17;;;;;;;7.30;6.80;;;;;;;;;;4948662;28;20222;-64
2023/08/22 02:16:45;;;;;;;7.30;6.72;;;;;;;;;;4947932;28;20234;-63
2023/08/22 02:19:12;;;;;;;8.70;6.63;;;;;;;;;;4948240;28;20246;-64
2023/08/22 02:21:39;;;;;;;10.07;7.00;;;;;;;;;;4947791;28;20225;-64
2023/08/22 02:24:06;;;;;;;7.63;6.90;;;;;;;;;;4948156;28;20238;-64
2023/08/22 02:26:33;;;;;;;8.52;7.57;;;;;;;;;;4947963;28;20242;-63
2023/08/22 02:29:01;;;;;;;8.25;7.45;;;;;;;;;;4936154;28;20218;-63
2023/08/22 02:31:29;;;;;;;11.70;7.50;;;;;;;;;;4930739;29;20215;-64
2023/08/22 02:33:56;;;;;;;10.98;7.28;;;;;;;;;;4929154;29;20218;-64
2023/08/22 02:36:23;;;;;;;7.97;7.18;;;;;;;;;;4944178;29;20207;-64
2023/08/22 02:38:50;;;;;;;8.85;7.95;;;;;;;;;;4947786;28;20207;-64
2023/08/22 02:41:17;;;;;;;10.43;7.60;;;;;;;;;;4948363;28;20207;-63
2023/08/22 02:43:44;;;;;;;8.63;7.70;;;;;;;;;;4948483;28;20235;-64
2023/08/22 02:46:11;;;;;;;7.72;6.80;;;;;;;;;;4947780;28;20544;-63
2023/08/22 02:48:40;;;;;;;11.93;7.78;;;;;;;;;;4947372;28;20207;-64
2023/08/22 02:51:07;;;;;;;8.05;7.45;;;;;;;;;;4948393;28;20223;-64
2023/08/22 02:53:34;;;;;;;8.38;7.68;;;;;;;;;;4948078;28;20213;-64
2023/08/22 02:56:01;;;;;;;9.40;7.28;;;;;;;;;;4947823;28;20210;-63
2023/08/22 02:58:28;;;;;;;8.15;7.55;;;;;;;;;;4947832;28;20215;-64
2023/08/22 03:00:55;;;;;;;9.18;7.50;;;;;;;;;;4947870;28;20385;-63
2023/08/22 03:03:22;;;;;;;8.27;7.47;;;;;;;;;;4948312;28;20219;-64
2023/08/22 03:05:50;;;;;;;8.40;7.63;;;;;;;;;;4947594;28;20242;-63
2023/08/22 03:08:17;;;;;;;9.18;7.53;;;;;;;;;;4947636;28;20207;-63
2023/08/22 03:10:44;;;;;;;8.15;7.43;;;;;;;;;;4948014;28;20249;-63
2023/08/22 03:13:11;;;;;;;9.13;7.60;;;;;;;;;;4947748;28;20868;-64
2023/08/22 03:15:39;;;;;;;8.98;7.22;;;;;;;;;;4948504;28;20239;-64
2023/08/22 03:18:06;;;;;;;7.88;7.15;;;;;;;;;;4947925;28;20701;-64
2023/08/22 03:20:33;;;;;;;9.88;8.95;;;;;;;;;;4947900;28;20215;-64
2023/08/22 03:23:01;;;;;;;10.48;8.50;;;;;;;;;;4946786;28;20210;-64
2023/08/22 03:25:28;;;;;;;9.30;7.47;;;;;;;;;;4948125;28;20229;-64
2023/08/22 03:27:55;;;;;;;9.43;8.40;;;;;;;;;;4948468;28;20274;-64
2023/08/22 03:30:22;;;;;;;8.38;7.68;;;;;;;;;;4948738;28;20574;-64
2023/08/22 03:32:49;;;;;;;10.88;7.88;;;;;;;;;;4948614;28;20219;-64
2023/08/22 03:35:16;;;;;;;8.07;7.38;;;;;;;;;;4947065;29;20211;-63
2023/08/22 03:37:43;;;;;;;8.30;7.43;;;;;;;;;;4946911;28;20214;-63
2023/08/22 03:40:12;;;;;;;11.50;7.80;;;;;;;;;;4948118;28;20238;-63
2023/08/22 03:42:39;;;;;;;9.75;8.18;;;;;;;;;;4947979;28;20238;-63
2023/08/22 03:45:07;;;;;;;8.40;7.68;;;;;;;;;;4948620;28;20243;-64
2023/08/22 03:47:34;;;;;;;9.82;7.65;;;;;;;;;;4952378;28;20242;-63
2023/08/22 03:50:01;;;;;;;8.50;7.18;;;;;;;;;;4951917;28;20219;-63
2023/08/22 03:52:28;;;;;;;8.88;7.53;;;;;;;;;;4951684;28;20682;-63
2023/08/22 03:54:55;;;;;;;13.77;7.35;;;;;;;;;;4951866;28;20210;-63
2023/08/22 03:57:24;;;;;;;8.90;7.15;;;;;;;;;;4951865;28;20218;-63
2023/08/22 03:59:51;;;;;;;8.52;7.55;;;;;;;;;;4951461;28;20226;-63
2023/08/22 04:02:18;;;;;;;10.00;7.65;;;;;;;;;;4950295;29;20265;-63
2023/08/22 04:04:45;;;;;;;7.68;7.00;;;;;;;;;;4950555;28;20230;-63
2023/08/22 04:07:12;;;;;;;11.88;7.47;;;;;;;;;;4951598;28;20214;-63
2023/08/22 04:09:39;;;;;;;10.82;7.93;;;;;;;;;;4951834;28;20705;-63
2023/08/22 04:12:06;;;;;;;9.63;7.68;;;;;;;;;;4951583;28;20214;-63
2023/08/22 04:14:35;;;;;;;7.80;7.20;;;;;;;;;;4951679;28;20610;-63
2023/08/22 04:17:02;;;;;;;8.68;7.00;;;;;;;;;;4950369;28;20230;-63
2023/08/22 04:19:29;;;;;;;10.45;7.70;;;;;;;;;;4951151;28;20339;-63
2023/08/22 04:21:56;;;;;;;8.55;7.85;;;;;;;;;;4950908;28;20207;-63
2023/08/22 04:24:23;;;;;;;12.68;7.70;;;;;;;;;;4951161;28;20253;-63
2023/08/22 04:26:51;;;;;;;10.80;7.85;;;;;;;;;;4951094;28;20211;-62
2023/08/22 04:29:18;;;;;;;12.32;8.23;;;;;;;;;;4951247;28;20242;-61
2023/08/22 04:31:46;;;;;;;16.15;7.65;;;;;;;;;;4951014;28;20849;-62
2023/08/22 04:34:13;;;;;;;9.68;7.50;;;;;;;;;;4950739;28;20211;-64
2023/08/22 04:36:40;;;;;;;13.90;7.78;;;;;;;;;;4951485;28;20238;-62
2023/08/22 04:39:08;;;;;;;8.30;7.47;;;;;;;;;;4950361;28;20207;-62
2023/08/22 04:41:35;;;;;;;11.80;7.18;;;;;;;;;;4950423;28;20219;-62
2023/08/22 04:44:02;;;;;;;9.60;7.40;;;;;;;;;;4950937;28;20218;-62
2023/08/22 04:46:29;;;;;;;12.57;7.97;;;;;;;;;;4950964;28;20211;-61
2023/08/22 04:48:57;;;;;;;10.85;7.47;;;;;;;;;;4950350;28;20230;-62
2023/08/22 04:51:24;;;;;;;8.38;7.47;;;;;;;;;;4936609;29;20203;-63
2023/08/22 04:53:52;;;;;;;8.88;7.45;;;;;;;;;;4949939;28;20480;-61
2023/08/22 04:56:19;;;;;;;8.25;7.38;;;;;;;;;;4950293;28;20207;-61
2023/08/22 04:58:46;;;;;;;7.60;6.85;;;;;;;;;;4951136;28;20219;-61
2023/08/22 05:01:13;;;;;;;8.82;7.95;;;;;;;;;;4950462;28;20210;-61
2023/08/22 05:03:41;;;;;;;10.18;7.75;;;;;;;;;;4950209;28;20211;-61
2023/08/22 05:06:09;;;;;;;11.10;7.28;;;;;;;;;;4950094;28;20715;-61
2023/08/22 05:08:36;;;;;;;8.32;7.45;;;;;;;;;;4950016;28;20222;-62
2023/08/22 05:11:03;;;;;;;8.82;7.30;;;;;;;;;;4950790;28;20215;-62
2023/08/22 05:13:30;;;;;;;8.35;7.55;;;;;;;;;;4950551;28;20210;-63
2023/08/22 05:15:57;;;;;;;14.52;7.32;;;;;;;;;;4949568;28;20724;-62
2023/08/22 05:18:24;;;;;;;12.27;7.32;;;;;;;;;;4947741;28;20223;-62
2023/08/22 05:20:52;;;;;;;7.93;6.88;;;;;;;;;;4950848;28;20221;-62
2023/08/22 05:23:19;;;;;;;7.97;7.03;;;;;;;;;;4950299;28;20230;-62
2023/08/22 05:25:46;;;;;;;9.57;6.93;;;;;;;;;;4949892;28;20238;-63
2023/08/22 05:28:13;;;;;;;11.93;7.95;;;;;;;;;;4948764;29;20222;-63
2023/08/22 05:30:41;;;;;;;19.95;7.65;;;;;;;;;;4950128;28;20221;-63
2023/08/22 05:33:08;;;;;;;9.35;6.70;;;;;;;;;;4950460;28;20222;-62
2023/08/22 05:35:35;;;;;;;8.90;6.70;;;;;;;;;;4949769;28;20203;-63
2023/08/22 05:38:02;;;;;;;7.40;6.70;;;;;;;;;;4938926;29;20214;-63
2023/08/22 05:40:31;;;;;;;8.15;6.30;;;;;;;;;;4950260;28;20207;-63
2023/08/22 05:42:58;;;;;;;11.38;6.68;;;;;;;;;;4942721;28;20207;-63
2023/08/22 05:45:25;;;;;;;7.15;6.18;;;;;;;;;;4949930;28;20306;-63
2023/08/22 05:47:52;;;;;;;9.70;6.88;;;;;;;;;;4949537;28;20214;-64
2023/08/22 05:50:19;;;;;;;7.85;7.07;;;;;;;;;;4957676;28;20218;-64
2023/08/22 05:52:46;;;;;;;7.78;7.13;;;;;;;;;;4969210;28;20254;-65
2023/08/22 05:55:13;;;;;;;11.40;7.38;;;;;;;;;;4951812;28;20207;-63
2023/08/22 05:57:42;;;;;;;9.32;6.57;;;;;;;;;;4948987;28;20585;-63
2023/08/22 06:00:09;;;;;;;7.75;6.90;;;;;;;;;;4948599;28;20685;-63
2023/08/22 06:02:36;;;;;;;11.23;7.18;;;;;;;;;;4953596;28;20213;-64
2023/08/22 06:05:06;;;;;;;7.20;6.38;;;;;;;;;;4946991;28;20242;-62
2023/08/22 06:07:33;;;;;;;7.45;6.47;;;;;;;;;;4948383;28;20258;-62
2023/08/22 06:10:00;;;;;;;7.07;6.43;;;;;;;;;;4947891;28;20222;-62
2023/08/22 06:12:28;;;;;;;7.55;6.82;;;;;;;;;;4948361;28;20210;-63
2023/08/22 06:14:56;;;;;;;11.82;6.88;;;;;;;;;;4948510;28;20213;-63
2023/08/22 06:17:23;;;;;;;6.57;6.10;;;;;;;;;;4947637;28;20219;-63
2023/08/22 06:19:51;;;;;;;8.05;6.10;;;;;;;;;;4948258;28;20280;-63
2023/08/22 06:22:18;;;;;;;7.35;6.65;;;;;;;;;;4948516;28;20257;-63
2023/08/22 06:24:45;;;;;;;11.85;6.55;;;;;;;;;;4948186;28;20222;-62
2023/08/22 06:27:12;;;;;;;9.70;6.88;;;;;;;;;;4948540;28;20215;-63
2023/08/22 06:29:39;;;;;;;7.57;5.93;;;;;;;;;;4948337;29;20203;-63
2023/08/22 06:32:08;;;;;;;8.70;6.40;;;;;;;;;;4948372;28;20222;-63
2023/08/22 06:34:35;;;;;;;6.60;6.00;;;;;;;;;;4939053;29;20297;-63
2023/08/22 06:37:03;;;;;;;8.10;6.07;;;;;;;;;;4947587;28;20733;-63
2023/08/22 06:39:30;;;;;;;6.65;5.82;;;;;;;;;;4947164;28;20246;-62
2023/08/22 06:41:57;;;;;;;9.85;5.65;;;;;;;;;;4946498;29;20217;-64
2023/08/22 06:44:24;;;;;;;5.90;5.40;;;;;;;;;;4948177;28;20237;-60
2023/08/22 06:46:51;;;;;;;7.50;5.65;;;;;;;;;;4947880;28;20237;-62
2023/08/22 06:49:20;;;;;;;6.10;5.57;;;;;;;;;;4947283;28;20214;-62
2023/08/22 06:51:47;;;;;;;9.68;5.97;;;;;;;;;;4948512;28;20218;-66
2023/08/22 06:54:14;;;;;;;6.22;5.72;;;;;;;;;;4947942;28;20217;-62
2023/08/22 06:56:41;;;;;;;6.82;6.03;;;;;;;;;;4948104;28;20207;-63
2023/08/22 06:59:09;;;;;;;6.38;4.93;;;;;;;;;;4947746;28;20215;-63
2023/08/22 07:01:37;;;;;;;8.27;5.32;;;;;;;;;;4947348;28;20218;-63
2023/08/22 07:04:04;;;;;;;8.15;5.82;;;;;;;;;;4940751;28;20718;-64
2023/08/22 07:06:32;;;;;;;7.00;4.93;;;;;;;;;;4943871;28;20305;-63
2023/08/22 07:08:59;;;;;;;6.53;5.72;;;;;;;;;;4942426;28;20207;-64
2023/08/22 07:11:26;;;;;;;6.82;5.50;;;;;;;;;;4935739;28;20207;-64
2023/08/22 07:13:53;;;;;;;8.95;5.72;;;;;;;;;;4944287;28;20537;-64
2023/08/22 07:16:20;;;;;;;12.80;6.70;;;;;;;;;;4944231;28;20736;-60
2023/08/22 07:18:47;;;;;;;6.32;5.40;;;;;;;;;;4943506;28;20655;-60
2023/08/22 07:21:14;;;;;;;6.60;6.00;;;;;;;;;;4944590;28;20206;-59
2023/08/22 07:23:43;;;;;;;7.88;5.85;;;;;;;;;;4946750;28;20258;-60
2023/08/22 07:26:10;;;;;;;6.70;6.07;;;;;;;;;;4947591;29;20234;-60
2023/08/22 07:28:37;;;;;;;6.90;6.40;;;;;;;;;;4951360;28;20220;-61
2023/08/22 07:31:04;;;;;;;9.07;6.28;;;;;;;;;;4951401;28;20614;-60
2023/08/22 07:33:31;;;;;;;8.20;6.20;;;;;;;;;;4951267;28;20238;-61
2023/08/22 07:35:58;;;;;;;6.28;5.68;;;;;;;;;;4950962;28;20210;-60
2023/08/22 07:38:26;;;;;;;7.30;6.70;;;;;;;;;;4950661;28;20214;-60
2023/08/22 07:40:54;;;;;;;6.50;5.28;;;;;;;;;;4948840;28;20203;-61
2023/08/22 07:43:21;;;;;;;6.63;5.43;;;;;;;;;;4949365;28;20214;-60
2023/08/22 07:45:48;;;;;;;6.95;5.20;;;;;;;;;;4950989;28;20231;-60
2023/08/22 07:48:15;;;;;;;8.13;5.60;;;;;;;;;;4950816;28;20215;-60
2023/08/22 07:50:42;;;;;;;8.70;5.60;;;;;;;;;;4943223;29;20242;-60
2023/08/22 07:53:09;;;;;;;8.82;6.18;;;;;;;;;;4950760;28;20227;-60
2023/08/22 07:55:36;;;;;;;5.93;5.47;;;;;;;;;;4950728;28;20207;-60
2023/08/22 07:58:05;;;;;;;8.57;5.10;;;;;;;;;;4950950;28;20218;-59
2023/08/22 08:00:33;;;;;;;7.45;4.90;;;;;;;;;;4950197;28;20203;-60
2023/08/22 08:03:00;;;;;;;5.10;4.78;;;;;;;;;;4950507;28;20297;-60
2023/08/22 08:05:27;;;;;;;4.75;4.47;;;;;;;;;;4950024;28;20693;-60
2023/08/22 08:07:54;;;;;;;8.38;5.20;;;;;;;;;;4950620;28;20219;-60
2023/08/22 08:10:21;;;;;;;7.40;4.45;;;;;;;;;;4950331;28;20219;-60
2023/08/22 08:12:48;;;;;;;5.95;4.88;;;;;;;;;;4950134;28;20211;-60
2023/08/22 08:15:16;;;;;;;5.20;4.60;;;;;;;;;;4949816;28;21022;-60
2023/08/22 08:17:43;;;;;;;5.47;5.00;;;;;;;;;;4950298;28;20297;-61
2023/08/22 08:20:11;;;;;;;5.13;4.72;;;;;;;;;;4950256;28;20955;-60
2023/08/22 08:22:38;;;;;;;6.30;5.38;;;;;;;;;;4950199;28;20619;-60
2023/08/22 08:25:05;;;;;;;5.13;4.57;;;;;;;;;;4950014;28;20248;-60
2023/08/22 08:27:33;;;;;;;5.15;4.65;;;;;;;;;;4949713;28;20231;-60
2023/08/22 08:30:04;;;;;;;5.63;4.15;;;;;;;;;;4947934;28;20212;-60
2023/08/22 08:32:33;;;;;;;4.70;4.30;;;;;;;;;;4948640;28;20665;-60
2023/08/22 08:35:00;;;;;;;6.70;4.88;;;;;;;;;;4949829;28;20222;-60
2023/08/22 08:37:29;;;;;;;9.70;4.18;;;;;;;;;;4949936;28;20207;-60
2023/08/22 08:39:56;;;;;;;6.70;4.43;;;;;;;;;;4950362;28;20309;-60
2023/08/22 08:42:23;;;;;;;4.60;4.30;;;;;;;;;;4949602;28;20214;-60
2023/08/22 08:44:52;;;;;;;5.47;4.80;;;;;;;;;;4949491;28;20572;-60
2023/08/22 08:47:19;;;;;;;4.93;4.40;;;;;;;;;;4948883;28;20240;-60
2023/08/22 08:49:48;;;;;;;4.57;4.15;;;;;;;;;;4949830;28;20326;-60
2023/08/22 08:52:15;;;;;;;4.45;4.07;;;;;;;;;;4949931;28;20227;-59
2023/08/22 08:54:43;;;;;;;5.47;4.25;;;;;;;;;;4949055;28;20206;-60
2023/08/22 08:57:10;;;;;;;4.47;4.07;;;;;;;;;;4949373;28;20480;-59
2023/08/22 08:59:37;;;;;;;5.65;5.00;;;;;;;;;;4946818;28;20303;-60
2023/08/22 09:02:04;;;;;;;4.90;4.65;;;;;;;;;;4947230;28;20697;-59
2023/08/22 09:04:31;;;;;;;4.68;4.30;;;;;;;;;;4948905;28;20218;-60
2023/08/22 09:07:00;;;;;;;4.70;4.30;;;;;;;;;;4948818;28;20261;-60
2023/08/22 09:09:34;;;;;;;4.60;4.38;;;;;;;;;;4948967;28;20215;-60
2023/08/22 09:12:04;;;;;;;8.00;5.30;;;;;;;;;;4948651;28;20279;-60
2023/08/22 09:14:31;;;;;;;5.03;4.57;;;;;;;;;;4947408;28;20218;-61
2023/08/22 09:17:01;;;;;;;5.00;4.70;;;;;;;;;;4949023;28;20238;-62
2023/08/22 09:19:32;;;;;;;4.70;4.40;;;;;;;;;;4949045;29;20242;-60
2023/08/22 09:22:02;;;;;;;5.63;4.50;;;;;;;;;;4948889;28;20306;-61
2023/08/22 09:24:29;;;;;;;5.32;4.80;;;;;;;;;;4930040;29;20680;-60
2023/08/22 09:26:56;;;;;;;5.50;5.00;;;;;;;;;;4937096;29;20230;-60
2023/08/22 09:29:27;;;;;;;5.70;5.13;;;;;;;;;;4948954;28;20222;-60
2023/08/22 09:31:57;;;;;;;5.90;5.40;;;;;;;;;;4948811;28;20245;-60
2023/08/22 09:34:25;;;;;;;5.40;5.00;;;;;;;;;;4948870;28;20285;-60
2023/08/22 09:36:53;;;;;;;5.28;4.80;;;;;;;;;;4948740;28;20206;-60
2023/08/22 09:39:22;;;;;;;6.57;4.75;;;;;;;;;;4948548;28;20222;-60
2023/08/22 09:41:51;;;;;;;5.85;5.40;;;;;;;;;;4948561;28;20305;-60
2023/08/22 09:44:19;;;;;;;4.82;4.35;;;;;;;;;;4946644;28;20217;-60
2023/08/22 09:46:47;;;;;;;4.95;4.55;;;;;;;;;;4948869;28;20237;-60
2023/08/22 09:49:16;;;;;;;5.80;4.68;;;;;;;;;;4948829;28;20211;-60
2023/08/22 09:51:44;;;;;;;5.82;4.72;;;;;;;;;;4948506;28;20308;-60
2023/08/22 09:54:12;;;;;;;6.40;5.03;;;;;;;;;;4948237;28;20765;-60
2023/08/22 09:56:41;;;;;;;5.00;4.60;;;;;;;;;;4947033;29;20199;-60
2023/08/22 09:59:08;;;;;;;4.80;4.38;;;;;;;;;;4948273;28;20218;-61
2023/08/22 10:01:36;;;;;;;5.18;4.28;;;;;;;;;;4941127;28;20211;-60
2023/08/22 10:04:04;;;;;;;6.10;5.28;;;;;;;;;;4942931;29;20733;-60
2023/08/22 10:06:32;;;;;;;8.48;4.80;;;;;;;;;;4948155;28;20760;-59
2023/08/22 10:09:00;;;;;;;6.90;4.95;;;;;;;;;;4947903;28;20216;-60
2023/08/22 10:11:29;;;;;;;6.32;5.00;;;;;;;;;;4947815;28;20675;-60
2023/08/22 10:13:57;;;;;;;5.78;5.20;;;;;;;;;;4947132;28;20287;-60
2023/08/22 10:16:28;;;;;;;5.50;5.00;;;;;;;;;;4946057;28;20218;-61
2023/08/22 10:19:01;;;;;;;9.70;5.25;;;;;;;;;;4946863;28;20265;-59
2023/08/22 10:21:32;;;;;;;4.40;4.20;;;;;;;;;;4947951;28;20724;-60
2023/08/22 10:23:59;;;;;;;4.22;3.88;;;;;;;;;;4947989;28;20229;-60
2023/08/22 10:26:27;;;;;;;4.15;3.97;;;;;;;;;;4947474;28;20234;-60
2023/08/22 10:29:14;;;;;;;4.47;4.28;;;;;;;;;;4947845;28;20677;-60
2023/08/22 10:32:00;;;;;;;5.90;4.10;;;;;;;;;;4947900;29;20233;-60
2023/08/22 10:34:27;;;;;;;4.65;4.35;;;;;;;;;;4946488;28;20217;-61
2023/08/22 10:36:58;;;;;;;5.22;4.75;;;;;;;;;;4947876;28;20209;-60
2023/08/22 10:39:36;;;;;;;4.03;3.80;;;;;;;;;;4948139;28;20728;-60
2023/08/22 10:42:03;;;;;;;4.35;4.05;;;;;;;;;;4947003;28;20264;-60
2023/08/22 10:44:31;;;;;;;4.60;4.20;;;;;;;;;;4947572;28;20209;-60
2023/08/22 10:46:59;;;;;;;4.70;4.43;;;;;;;;;;4947553;28;20246;-60
2023/08/22 10:49:29;;;;;;;4.88;4.25;;;;;;;;;;4947912;28;20229;-60
2023/08/22 10:52:01;;;;;;;4.20;4.00;;;;;;;;;;4948368;28;20557;-60
2023/08/22 10:54:30;;;;;;;4.45;4.05;;;;;;;;;;4949305;28;20601;-60
2023/08/22 10:57:12;;;;;;;4.10;3.80;;;;;;;;;;4951636;28;20599;-60
2023/08/22 11:02:37;;;;;;;5.85;4.05;;;;;;;;;;5083258;28;20555;-60
2023/08/22 11:05:05;;;;;;;4.43;4.10;;;;;;;;;;5082829;28;20233;-60
2023/08/22 11:07:34;;;;;;;3.78;3.58;;;;;;;;;;5082974;28;20208;-60
2023/08/22 11:10:01;;;;;;;3.42;3.22;;;;;;;;;;5083224;28;20213;-60
2023/08/22 11:12:29;;;;;;;4.20;3.80;;;;;;;;;;5083276;28;20209;-60
2023/08/22 11:14:57;;;;;;;3.72;3.42;;;;;;;;;;5082953;28;20220;-60
2023/08/22 11:17:24;;;;;;;3.30;3.20;;;;;;;;;;5082586;28;20751;-60
2023/08/22 11:19:54;;;;;;;3.78;3.45;;;;;;;;;;5083095;28;20217;-61
2023/08/22 11:22:21;;;;;;;4.03;3.83;;;;;;;;;;5083105;28;20272;-60
2023/08/22 11:24:49;;;;;;;3.60;3.40;;;;;;;;;;5082666;28;20213;-60
2023/08/22 11:27:16;;;;;;;3.92;3.55;;;;;;;;;;5078663;28;20206;-60
2023/08/22 11:29:45;;;;;;;4.07;3.65;;;;;;;;;;5073495;28;20206;-60
2023/08/22 11:32:22;;;;;;;4.25;3.95;;;;;;;;;;5064203;28;20205;-60
2023/08/22 11:34:50;;;;;;;3.38;3.17;;;;;;;;;;5063488;28;20215;-60
2023/08/22 11:37:18;;;;;;;3.78;3.45;;;;;;;;;;5063461;28;20707;-60
2023/08/22 11:39:49;;;;;;;4.18;3.30;;;;;;;;;;5062086;28;20210;-61
2023/08/22 11:42:16;;;;;;;4.82;3.50;;;;;;;;;;5062129;28;20237;-61
2023/08/22 11:44:53;;;;;;;3.88;3.58;;;;;;;;;;5063242;28;20720;-61
2023/08/22 11:47:20;;;;;;;3.70;3.40;;;;;;;;;;5074348;28;20213;-61
2023/08/22 11:49:50;;;;;;;3.92;3.47;;;;;;;;;;5079099;28;20206;-61
2023/08/22 11:52:18;;;;;;;4.15;3.80;;;;;;;;;;5082388;28;20296;-60
2023/08/22 11:54:46;;;;;;;3.58;3.28;;;;;;;;;;5080180;28;20210;-60
2023/08/22 11:57:13;;;;;;;3.95;3.63;;;;;;;;;;5079146;28;20206;-60
2023/08/22 11:59:42;;;;;;;4.85;3.92;;;;;;;;;;5069409;28;20425;-60
2023/08/22 12:02:11;;;;;;;4.18;3.53;;;;;;;;;;5082181;28;20269;-60
2023/08/22 12:04:41;;;;;;;3.45;3.22;;;;;;;;;;5067403;28;20305;-60
2023/08/22 12:07:08;;;;;;;3.30;3.10;;;;;;;;;;5071668;28;20694;-60
2023/08/22 12:09:37;;;;;;;3.88;3.58;;;;;;;;;;5081756;28;20879;-60
2023/08/22 12:12:11;;;;;;;4.40;3.63;;;;;;;;;;5078767;28;20207;-60
2023/08/22 12:14:38;;;;;;;3.75;3.45;;;;;;;;;;5058898;28;20320;-60
2023/08/22 12:17:05;;;;;;;3.42;3.28;;;;;;;;;;5054144;28;20605;-60
2023/08/22 12:19:32;;;;;;;4.55;3.40;;;;;;;;;;5068405;28;20218;-60
2023/08/22 12:21:59;;;;;;;3.92;3.50;;;;;;;;;;5068359;28;20230;-60
2023/08/22 12:24:27;;;;;;;3.40;3.30;;;;;;;;;;5066659;28;20218;-61
2023/08/22 12:26:55;;;;;;;3.00;2.72;;;;;;;;;;5067740;28;20619;-61
2023/08/22 12:29:22;;;;;;;3.35;3.05;;;;;;;;;;5067892;28;20881;-61
2023/08/22 12:31:49;;;;;;;2.90;2.70;;;;;;;;;;5068205;28;20210;-61
2023/08/22 12:34:16;;;;;;;4.30;3.25;;;;;;;;;;5067207;28;20218;-61
2023/08/22 12:36:43;;;;;;;4.30;2.85;;;;;;;;;;5064150;28;20584;-61
2023/08/22 12:39:12;;;;;;;9.02;2.70;;;;;;;;;;5053913;28;20325;-60
2023/08/22 12:41:39;;;;;;;3.38;3.08;;;;;;;;;;5052239;28;20238;-61
2023/08/22 12:44:07;;;;;;;3.53;3.22;;;;;;;;;;5056406;28;20232;-61
2023/08/22 12:46:34;;;;;;;3.70;3.25;;;;;;;;;;5067868;28;20548;-61
2023/08/22 12:49:01;;;;;;;3.42;3.05;;;;;;;;;;5064194;28;20504;-61
2023/08/22 12:51:28;;;;;;;3.30;3.08;;;;;;;;;;5047481;28;20206;-61
2023/08/22 12:53:55;;;;;;;5.90;3.10;;;;;;;;;;5047888;28;20665;-61
2023/08/22 12:56:26;;;;;;;4.18;2.97;;;;;;;;;;5047921;28;20256;-64
2023/08/22 12:58:53;;;;;;;2.78;2.67;;;;;;;;;;5047704;28;20214;-66
2023/08/22 13:01:21;;;;;;;3.00;2.72;;;;;;;;;;5051032;28;20242;-65
2023/08/22 13:03:48;;;;;;;5.13;3.08;;;;;;;;;;5063986;28;20206;-65
2023/08/22 13:06:15;;;;;;;3.10;3.03;;;;;;;;;;5063946;28;20628;-64
2023/08/22 13:08:42;;;;;;;3.70;2.85;;;;;;;;;;5047402;28;20218;-64
2023/08/22 13:11:09;;;;;;;3.17;2.88;;;;;;;;;;5051209;28;20195;-64
2023/08/22 13:13:36;;;;;;;3.20;2.92;;;;;;;;;;5057051;28;20379;-65
2023/08/22 13:16:03;;;;;;;5.80;2.92;;;;;;;;;;5047054;28;20203;-64
2023/08/22 13:18:31;;;;;;;3.03;2.90;;;;;;;;;;5062108;28;20258;-64
2023/08/22 13:20:58;;;;;;;3.47;2.83;;;;;;;;;;5047301;28;20210;-64
2023/08/22 13:23:25;;;;;;;2.88;2.78;;;;;;;;;;5051787;28;20221;-61
2023/08/22 13:25:54;;;;;;;4.00;2.83;;;;;;;;;;5056610;28;20700;-68
2023/08/22 13:28:21;;;;;;;5.45;2.88;;;;;;;;;;5046895;28;20302;-62
2023/08/22 13:30:48;;;;;;;3.20;2.95;;;;;;;;;;5047308;28;20306;-63
2023/08/22 13:33:15;;;;;;;2.90;2.70;;;;;;;;;;5047169;28;20226;-62
2023/08/22 13:35:43;;;;;;;3.20;3.10;;;;;;;;;;5049074;28;20207;-68
2023/08/22 13:38:10;;;;;;;3.15;2.95;;;;;;;;;;5054101;28;20198;-64
2023/08/22 13:40:37;;;;;;;3.33;2.78;;;;;;;;;;5064552;28;20268;-64
2023/08/22 13:43:05;;;;;;;4.07;2.88;;;;;;;;;;5067035;28;20233;-63
2023/08/22 13:45:32;;;;;;;3.08;2.70;;;;;;;;;;5064486;28;20210;-63
2023/08/22 13:47:59;;;;;;;2.88;2.55;;;;;;;;;;5046596;28;20549;-63
2023/08/22 13:50:26;;;;;;;2.60;2.50;;;;;;;;;;5064292;28;20872;-63
2023/08/22 13:52:54;;;;;;;3.10;2.80;;;;;;;;;;5066568;28;20672;-63
2023/08/22 13:55:21;;;;;;;2.67;2.20;;;;;;;;;;5066290;28;20214;-64
2023/08/22 13:57:48;;;;;;;2.92;2.72;;;;;;;;;;5055126;28;20202;-63
2023/08/22 14:00:15;;;;;;;3.28;2.58;;;;;;;;;;5046431;28;20587;-64
2023/08/22 14:02:42;;;;;;;2.80;2.60;;;;;;;;;;5046517;28;20222;-64
2023/08/22 14:05:10;;;;;;;2.40;2.20;;;;;;;;;;5046375;28;20211;-64
2023/08/22 14:07:37;;;;;;;2.20;2.10;;;;;;;;;;5058958;28;20297;-64
2023/08/22 14:10:06;;;;;;;2.47;2.28;;;;;;;;;;5062967;28;20251;-64
2023/08/22 14:12:34;;;;;;;3.78;2.20;;;;;;;;;;5046114;28;20207;-64
2023/08/22 14:15:01;;;;;;;2.28;2.17;;;;;;;;;;5046340;28;20306;-64
2023/08/22 14:17:28;;;;;;;2.97;2.47;;;;;;;;;;5047488;28;20234;-64
2023/08/22 14:19:55;;;;;;;2.40;2.20;;;;;;;;;;5059461;28;20220;-64
2023/08/22 14:22:22;;;;;;;2.97;2.30;;;;;;;;;;5065908;28;20230;-64
2023/08/22 14:24:49;;;;;;;2.97;2.50;;;;;;;;;;5065908;28;20210;-63
2023/08/22 14:27:17;;;;;;;2.30;2.20;;;;;;;;;;5063697;28;20217;-64
2023/08/22 14:29:44;;;;;;;2.40;2.20;;;;;;;;;;5065956;28;20206;-64
2023/08/22 14:32:11;;;;;;;2.40;2.30;;;;;;;;;;5065969;28;20742;-64
2023/08/22 14:34:38;;;;;;;3.90;2.55;;;;;;;;;;5066379;28;20214;-64
2023/08/22 14:37:05;;;;;;;2.50;2.40;;;;;;;;;;5063857;28;20667;-65
2023/08/22 14:39:33;;;;;;;2.85;2.75;;;;;;;;;;5065371;28;20651;-64
2023/08/22 14:42:00;;;;;;;3.80;2.88;;;;;;;;;;5050509;28;20234;-64
2023/08/22 14:44:29;;;;;;;2.53;2.42;;;;;;;;;;5046145;28;20203;-64
2023/08/22 14:46:56;;;;;;;3.17;2.88;;;;;;;;;;5052273;28;20229;-64